Overview Statistics Trail Chart Weather Telemetry Raw packets
 

This is the latest recevied weather packets stored in our database for station/object W2SBL-1. If no packets are shown the sender has not sent any weather packets the latest 10 day(s).

<< 13 14 15 16 17 18 19 >>
Time Temp. Humidity Pressure Rain* Wind** Luminosity Snow
1788094680 25° C 51% 1021.9 hPa - - - -
1788093780 24.44° C 52% 1022 hPa - - - -
1788092880 23.89° C 52% 1022.1 hPa - - - -
1788091980 23.33° C 52% 1022 hPa - - - -
1788091080 8.33° C 52% 998.8 hPa - - - -
1788090179 22.22° C 53% 1022 hPa - - - -
1788089279 21.67° C 53% 1022 hPa - - - -
1788088379 21.67° C 54% 1021.9 hPa - - - -
1788087479 21.11° C 54% 1021.8 hPa - - - -
1788086579 21.11° C 54% 1021.8 hPa - - - -
1788085679 20.56° C 54% 1021.7 hPa - - - -
1788084779 20.56° C 54% 1021.6 hPa - - - -
1788083879 20.56° C 55% 1021.6 hPa - - - -
1788082979 20.56° C 55% 1021.7 hPa - - - -
1788082079 20.56° C 55% 1021.7 hPa - - - -
1788081179 20.56° C 54% 1021.7 hPa - - - -
1788080279 20.56° C 55% 1021.7 hPa - - - -
1788079379 20.56° C 55% 1022 hPa - - - -
1788078478 20.56° C 55% 1021.8 hPa - - - -
1788077578 20° C 55% 1022 hPa - - - -
1788076678 20° C 55% 1022 hPa - - - -
1788075778 20° C 55% 1021.9 hPa - - - -
1788074878 20° C 55% 1022.2 hPa - - - -
1788073978 20° C 55% 1022.3 hPa - - - -
1788073078 20° C 55% 1022.1 hPa - - - -

* Rain since midnight (hover to see other rain measurements)
** Current wind speed in m/s (hover to see current wind gust speed)